createdAt,value
2019-03-25T00:03:56.986Z,61.30
2019-03-25T00:08:47.904Z,61.40
2019-03-25T00:13:38.870Z,60.00
2019-03-25T00:18:29.760Z,59.40
2019-03-25T00:23:20.674Z,59.90
2019-03-25T00:28:13.673Z,60.30
2019-03-25T00:33:02.506Z,60.70
2019-03-25T00:37:53.423Z,61.00
2019-03-25T00:42:44.339Z,61.30
2019-03-25T00:47:35.250Z,61.60
2019-03-25T00:52:26.967Z,60.50
2019-03-25T00:57:17.864Z,60.50
2019-03-25T01:02:08.786Z,60.10
2019-03-25T01:06:59.735Z,60.50
2019-03-25T01:11:51.403Z,61.30
2019-03-25T01:16:42.314Z,61.30
2019-03-25T01:21:33.220Z,61.70
2019-03-25T01:26:24.134Z,62.50
2019-03-25T01:31:15.042Z,62.00
2019-03-25T01:36:06.696Z,60.80
2019-03-25T01:40:57.639Z,60.80
2019-03-25T01:45:48.545Z,60.30
2019-03-25T01:50:39.438Z,60.70
2019-03-25T01:55:31.073Z,61.40
2019-03-25T02:00:22.712Z,61.50
2019-03-25T02:05:14.349Z,61.60
2019-03-25T02:10:05.977Z,61.70
2019-03-25T02:14:57.597Z,62.10
2019-03-25T02:19:48.499Z,62.00
2019-03-25T02:24:39.404Z,60.70
2019-03-25T02:29:30.307Z,60.20
2019-03-25T02:34:21.217Z,60.60
2019-03-25T02:39:12.128Z,60.90
2019-03-25T02:44:03.015Z,61.20
2019-03-25T02:48:54.650Z,61.60
2019-03-25T02:53:46.386Z,62.50
2019-03-25T02:58:38.018Z,61.80
2019-03-25T03:03:28.932Z,61.80
2019-03-25T03:08:19.818Z,60.70
2019-03-25T03:13:10.709Z,60.20
2019-03-25T03:18:01.590Z,60.70
2019-03-25T03:22:52.487Z,61.10
2019-03-25T03:27:43.372Z,61.20
2019-03-25T03:32:34.265Z,61.30
2019-03-25T03:37:25.888Z,61.80
2019-03-25T03:42:17.536Z,61.70
2019-03-25T03:47:08.433Z,61.50
2019-03-25T03:51:59.325Z,60.30
2019-03-25T03:56:50.236Z,60.90
2019-03-25T04:01:41.431Z,60.40
2019-03-25T04:06:32.310Z,60.90
2019-03-25T04:11:23.949Z,61.50
2019-03-25T04:16:15.609Z,61.90
2019-03-25T04:21:06.505Z,61.80
2019-03-25T04:25:57.394Z,62.10
2019-03-25T04:30:48.300Z,62.20
2019-03-25T04:35:39.190Z,61.00
2019-03-25T04:40:30.100Z,60.60
2019-03-25T04:45:21.020Z,61.10
2019-03-25T04:50:11.913Z,61.60
2019-03-25T04:55:03.543Z,62.60
2019-03-25T04:59:54.441Z,62.40
2019-03-25T05:04:45.418Z,62.70
2019-03-25T05:09:36.270Z,62.80
2019-03-25T05:14:27.154Z,62.80
2019-03-25T05:19:18.040Z,61.50
2019-03-25T05:24:08.938Z,61.20
2019-03-25T05:28:59.837Z,61.60
2019-03-25T05:33:50.726Z,62.10
2019-03-25T05:38:41.642Z,62.50
2019-03-25T05:43:32.551Z,62.90
2019-03-25T05:48:23.453Z,63.20
2019-03-25T05:53:14.476Z,63.20
2019-03-25T05:58:06.100Z,62.30
2019-03-25T06:02:57.005Z,62.40
2019-03-25T06:07:47.916Z,62.20
2019-03-25T06:12:38.813Z,62.50
2019-03-25T06:17:29.704Z,63.20
2019-03-25T06:22:20.665Z,63.50
2019-03-25T06:27:14.331Z,63.70
2019-03-25T06:32:12.494Z,64.00
2019-03-25T06:37:03.454Z,64.20
2019-03-25T06:41:54.344Z,64.10
2019-03-25T06:46:45.246Z,62.80
2019-03-25T06:51:36.881Z,62.80
2019-03-25T06:56:28.536Z,63.40
2019-03-25T07:01:19.432Z,63.40
2019-03-25T07:06:11.062Z,64.10
2019-03-25T07:11:03.115Z,64.50
2019-03-25T07:15:54.012Z,64.40
2019-03-25T07:20:44.902Z,65.20
2019-03-25T07:25:35.948Z,64.40
2019-03-25T07:30:26.951Z,63.40
2019-03-25T07:35:17.842Z,63.40
2019-03-25T07:40:08.736Z,63.90
2019-03-25T07:44:59.628Z,64.40
2019-03-25T07:49:50.613Z,64.80
2019-03-25T07:54:41.520Z,65.50
2019-03-25T07:59:32.447Z,65.50
2019-03-25T08:04:23.360Z,65.80
2019-03-25T08:09:14.264Z,65.60
2019-03-25T08:14:05.199Z,64.60
2019-03-25T08:18:56.075Z,64.80
2019-03-25T08:23:47.788Z,65.90
2019-03-25T08:28:38.682Z,65.80
2019-03-25T08:33:29.569Z,66.70
2019-03-25T08:38:20.475Z,66.30
2019-03-25T08:43:11.366Z,66.60
2019-03-25T08:48:02.261Z,66.70
2019-03-25T08:52:53.150Z,66.50
2019-03-25T08:57:44.045Z,65.60
2019-03-25T09:02:35.674Z,65.60
2019-03-25T09:07:27.304Z,66.20
2019-03-25T09:12:18.928Z,66.60
2019-03-25T09:17:11.322Z,66.90
2019-03-25T09:22:02.217Z,66.90
2019-03-25T09:26:53.854Z,67.60
2019-03-25T09:31:45.508Z,66.20
2019-03-25T09:36:36.405Z,66.20
2019-03-25T09:41:28.057Z,65.30
2019-03-25T09:46:18.961Z,65.30
2019-03-25T09:51:10.602Z,65.90
2019-03-25T09:56:01.512Z,65.90
2019-03-25T10:00:53.154Z,66.10
2019-03-25T10:05:44.804Z,66.20
2019-03-25T10:10:35.694Z,66.20
2019-03-25T10:15:27.340Z,64.20
2019-03-25T10:20:18.978Z,64.00
2019-03-25T10:25:10.628Z,64.50
2019-03-25T10:30:01.509Z,64.50
2019-03-25T10:34:52.397Z,64.80
2019-03-25T10:39:43.284Z,65.20
2019-03-25T10:44:34.176Z,65.50
2019-03-25T10:49:25.805Z,64.70
2019-03-25T10:54:17.491Z,64.60
2019-03-25T10:59:08.376Z,64.50
2019-03-25T11:04:00.053Z,65.90
2019-03-25T11:08:51.745Z,66.20
2019-03-25T11:13:43.377Z,66.20
2019-03-25T11:18:35.054Z,66.00
2019-03-25T11:23:25.941Z,66.00
2019-03-25T11:28:17.573Z,64.70
2019-03-25T11:33:09.213Z,63.90
2019-03-25T11:38:00.850Z,64.50
2019-03-25T11:42:51.747Z,64.40
2019-03-25T11:47:43.397Z,65.40
2019-03-25T11:52:34.303Z,65.30
2019-03-25T11:57:25.952Z,64.50
2019-03-25T12:02:18.019Z,63.60
2019-03-25T12:07:08.481Z,63.60
2019-03-25T12:11:59.369Z,62.70
2019-03-25T12:16:50.248Z,62.40
2019-03-25T12:21:41.156Z,62.30
2019-03-25T12:26:32.791Z,62.40
2019-03-25T12:31:24.419Z,62.40
2019-03-25T12:36:16.057Z,62.50
2019-03-25T12:41:07.710Z,61.70
2019-03-25T12:45:58.598Z,61.70
2019-03-25T12:50:49.485Z,61.70
2019-03-25T12:55:40.370Z,62.80
2019-03-25T13:00:33.053Z,62.30
2019-03-25T13:05:23.963Z,62.80
2019-03-25T13:10:14.916Z,63.20
2019-03-25T13:15:05.801Z,62.90
2019-03-25T13:19:56.704Z,61.90
2019-03-25T13:24:47.601Z,61.40
2019-03-25T13:29:39.258Z,61.10
2019-03-25T13:34:30.145Z,61.10
2019-03-25T13:39:21.068Z,61.30
2019-03-25T13:44:12.688Z,60.90
2019-03-25T13:49:03.633Z,60.80
2019-03-25T13:53:55.266Z,60.60
2019-03-25T13:58:46.923Z,62.10
2019-03-25T14:03:37.824Z,62.10
2019-03-25T14:08:29.457Z,63.00
2019-03-25T14:13:21.138Z,63.50
2019-03-25T14:18:12.031Z,63.50
2019-03-25T14:23:02.942Z,62.60
2019-03-25T14:27:53.836Z,62.40
2019-03-25T14:32:45.474Z,64.40
2019-03-25T14:37:37.108Z,63.40
2019-03-25T14:42:28.756Z,63.80
2019-03-25T14:47:20.406Z,63.70
2019-03-25T14:52:11.312Z,63.70
2019-03-25T14:57:02.947Z,61.70
2019-03-25T15:01:54.585Z,61.40
2019-03-25T15:06:46.239Z,61.50
2019-03-25T15:11:37.137Z,61.50
2019-03-25T15:16:28.832Z,62.40
2019-03-25T15:21:19.733Z,62.40
2019-03-25T15:26:10.624Z,62.50
2019-03-25T15:31:01.519Z,61.60
2019-03-25T15:35:53.144Z,60.80
2019-03-25T15:40:44.059Z,60.80
2019-03-25T15:45:34.990Z,62.30
2019-03-25T15:50:26.600Z,63.30
2019-03-25T15:55:17.518Z,63.30
2019-03-25T16:00:08.431Z,63.50
2019-03-25T16:04:59.340Z,62.30
2019-03-25T16:15:09.032Z,61.90
2019-03-25T16:19:59.925Z,62.70
2019-03-25T16:24:51.571Z,63.40
2019-03-25T16:29:42.477Z,63.30
2019-03-25T16:34:33.384Z,63.90
2019-03-25T16:39:24.313Z,62.90
2019-03-25T16:44:15.231Z,62.20
2019-03-25T16:49:06.176Z,62.60
2019-03-25T16:53:57.091Z,63.00
2019-03-25T16:58:48.007Z,63.30
2019-03-25T17:03:38.899Z,63.80
2019-03-25T17:08:29.793Z,64.00
2019-03-25T17:13:21.440Z,62.70
2019-03-25T17:18:13.074Z,62.80
2019-03-25T17:23:04.726Z,63.40
2019-03-25T17:27:55.628Z,63.40
2019-03-25T17:32:47.307Z,64.00
2019-03-25T17:37:38.209Z,64.00
2019-03-25T17:42:29.109Z,64.20
2019-03-25T17:47:20.015Z,64.40
2019-03-25T17:52:11.658Z,62.80
2019-03-25T17:57:02.540Z,62.80
2019-03-25T18:01:53.457Z,63.10
2019-03-25T18:06:44.360Z,63.40
2019-03-25T18:11:35.255Z,63.70
2019-03-25T18:16:26.140Z,64.00
2019-03-25T18:21:17.776Z,63.90
2019-03-25T18:26:09.416Z,62.90
2019-03-25T18:31:01.065Z,63.00
2019-03-25T18:35:51.976Z,63.00
2019-03-25T18:40:42.870Z,63.40
2019-03-25T18:45:34.529Z,64.00
2019-03-25T18:50:25.424Z,64.00
2019-03-25T18:55:17.072Z,64.80
2019-03-25T19:00:08.715Z,63.40
2019-03-25T19:05:00.394Z,62.70
2019-03-25T19:09:51.283Z,62.70
2019-03-25T19:14:42.165Z,63.10
2019-03-25T19:19:33.950Z,63.70
2019-03-25T19:24:25.627Z,63.90
2019-03-25T19:29:16.600Z,63.80
2019-03-25T19:34:07.509Z,63.80
2019-03-25T19:38:58.426Z,64.30
2019-03-25T19:43:49.338Z,63.40
2019-03-25T19:48:40.281Z,62.50
2019-03-25T19:53:31.196Z,62.60
2019-03-25T19:58:22.101Z,62.90
2019-03-25T20:03:12.987Z,63.10
2019-03-25T20:08:03.904Z,63.50
2019-03-25T20:12:54.826Z,63.60
2019-03-25T20:17:45.814Z,63.90
2019-03-25T20:22:36.813Z,63.50
2019-03-25T20:27:27.799Z,62.30
2019-03-25T20:32:31.036Z,62.30
2019-03-25T20:37:10.439Z,62.80
2019-03-25T20:42:01.332Z,62.80
2019-03-25T20:46:52.231Z,63.10
2019-03-25T20:51:43.620Z,63.50
2019-03-25T20:56:34.378Z,63.40
2019-03-25T21:01:25.274Z,63.80
2019-03-25T21:06:16.323Z,62.50
2019-03-25T21:11:07.975Z,62.20
2019-03-25T21:15:58.928Z,62.10
2019-03-25T21:20:50.653Z,62.80
2019-03-25T21:25:41.579Z,63.40
2019-03-25T21:30:32.476Z,63.00
2019-03-25T21:35:23.444Z,63.60
2019-03-25T21:40:14.340Z,63.80
2019-03-25T21:45:06.046Z,62.50
2019-03-25T21:49:56.986Z,62.00
2019-03-25T21:54:47.902Z,62.10
2019-03-25T21:59:38.773Z,62.40
2019-03-25T22:04:29.714Z,62.60
2019-03-25T22:09:20.641Z,62.90
2019-03-25T22:14:11.537Z,63.00
2019-03-25T22:19:02.479Z,63.20
2019-03-25T22:23:53.899Z,63.80
2019-03-25T22:28:44.302Z,62.40
2019-03-25T22:33:35.210Z,61.90
2019-03-25T22:38:26.097Z,62.10
2019-03-25T22:43:17.729Z,62.90
2019-03-25T22:48:09.422Z,63.20
2019-03-25T22:53:00.301Z,63.20
2019-03-25T22:57:51.205Z,63.60
2019-03-25T23:02:42.858Z,64.10
2019-03-25T23:07:33.893Z,64.00
2019-03-25T23:12:24.782Z,62.50
2019-03-25T23:17:16.411Z,62.20
2019-03-25T23:22:08.047Z,62.70
2019-03-25T23:26:59.726Z,63.10
2019-03-25T23:31:50.608Z,63.00
2019-03-25T23:36:41.581Z,63.40
2019-03-25T23:41:32.465Z,63.80
2019-03-25T23:46:23.410Z,64.10
2019-03-25T23:51:14.328Z,64.30
2019-03-25T23:56:05.245Z,62.90
